sensor_id;sensor_type;location;lat;lon;timestamp;pressure;altitude;pressure_sealevel;temperature;humidity
76940;BME280;65885;55.848;35.916;2022-12-07T14:27:31;99738.28;;;-4.29;43.45
76940;BME280;65885;55.848;35.916;2022-12-07T14:29:59;99734.38;;;-4.50;44.02
76940;BME280;65885;55.848;35.916;2022-12-07T14:32:28;99734.63;;;-4.75;45.17
76940;BME280;65885;55.848;35.916;2022-12-07T14:35:01;99746.03;;;-4.97;45.60
76940;BME280;65885;55.848;35.916;2022-12-07T14:37:30;99737.22;;;-5.07;46.70
76940;BME280;65885;55.848;35.916;2022-12-07T14:39:57;99738.66;;;-5.18;46.98
76940;BME280;65885;55.848;35.916;2022-12-07T14:42:28;99738.47;;;-5.25;47.22
76940;BME280;65885;55.848;35.916;2022-12-07T14:44:57;99739.31;;;-5.25;47.31
76940;BME280;65885;55.848;35.916;2022-12-07T14:47:25;99742.72;;;-5.26;47.69
76940;BME280;65885;55.848;35.916;2022-12-07T14:49:53;99737.59;;;-5.26;47.79
76940;BME280;65885;55.848;35.916;2022-12-07T14:52:22;99740.06;;;-5.29;47.80
76940;BME280;65885;55.848;35.916;2022-12-07T14:54:50;99723.75;;;-5.34;47.59
76940;BME280;65885;55.848;35.916;2022-12-07T14:57:17;99741.44;;;-5.42;48.14
76940;BME280;65885;55.848;35.916;2022-12-07T14:59:46;99736.16;;;-5.48;47.79
76940;BME280;65885;55.848;35.916;2022-12-07T15:02:14;99740.28;;;-5.53;48.48
76940;BME280;65885;55.848;35.916;2022-12-07T15:04:42;99735.81;;;-5.60;49.06
76940;BME280;65885;55.848;35.916;2022-12-07T15:07:14;99734.00;;;-5.64;48.63
76940;BME280;65885;55.848;35.916;2022-12-07T15:09:44;99741.63;;;-5.66;49.50
76940;BME280;65885;55.848;35.916;2022-12-07T15:12:12;99740.81;;;-5.65;49.78
76940;BME280;65885;55.848;35.916;2022-12-07T15:14:43;99739.94;;;-5.65;50.13
76940;BME280;65885;55.848;35.916;2022-12-07T15:17:12;99745.09;;;-5.64;50.27
76940;BME280;65885;55.848;35.916;2022-12-07T15:19:39;99738.38;;;-5.60;50.58
76940;BME280;65885;55.848;35.916;2022-12-07T15:22:08;99745.28;;;-5.57;51.12
76940;BME280;65885;55.848;35.916;2022-12-07T15:24:36;99734.41;;;-5.50;51.19
76940;BME280;65885;55.848;35.916;2022-12-07T15:27:04;99740.66;;;-5.39;51.68
76940;BME280;65885;55.848;35.916;2022-12-07T15:29:34;99740.13;;;-5.27;51.59
76940;BME280;65885;55.848;35.916;2022-12-07T15:32:02;99736.28;;;-5.12;51.94
76940;BME280;65885;55.848;35.916;2022-12-07T15:34:31;99738.41;;;-4.94;51.60
76940;BME280;65885;55.848;35.916;2022-12-07T15:36:58;99738.00;;;-4.76;51.13
76940;BME280;65885;55.848;35.916;2022-12-07T15:39:26;99726.50;;;-4.59;51.50
76940;BME280;65885;55.848;35.916;2022-12-07T15:41:53;99724.31;;;-4.42;51.21
76940;BME280;65885;55.848;35.916;2022-12-07T15:44:23;99710.16;;;-4.26;50.57
76940;BME280;65885;55.848;35.916;2022-12-07T15:47:08;99728.53;;;-4.06;50.15
76940;BME280;65885;55.848;35.916;2022-12-07T15:49:37;99727.91;;;-3.96;49.54
76940;BME280;65885;55.848;35.916;2022-12-07T15:52:04;99727.25;;;-3.86;49.27
76940;BME280;65885;55.848;35.916;2022-12-07T15:54:31;99718.81;;;-3.80;49.10
76940;BME280;65885;55.848;35.916;2022-12-07T15:56:59;99718.03;;;-3.78;49.25
76940;BME280;65885;55.848;35.916;2022-12-07T15:59:28;99716.25;;;-3.80;48.63
76940;BME280;65885;55.848;35.916;2022-12-07T16:01:56;99709.41;;;-3.83;48.84
76940;BME280;65885;55.848;35.916;2022-12-07T16:04:24;99705.00;;;-3.88;48.75
76940;BME280;65885;55.848;35.916;2022-12-07T16:06:54;99722.03;;;-3.92;48.78
76940;BME280;65885;55.848;35.916;2022-12-07T16:09:24;99702.97;;;-4.03;49.38
76940;BME280;65885;55.848;35.916;2022-12-07T16:11:52;99710.63;;;-4.06;48.99
76940;BME280;65885;55.848;35.916;2022-12-07T16:14:19;99706.22;;;-4.12;49.18
76940;BME280;65885;55.848;35.916;2022-12-07T16:17:42;99709.44;;;-4.22;49.83
76940;BME280;65885;55.848;35.916;2022-12-07T16:20:12;99706.81;;;-4.24;49.78
76940;BME280;65885;55.848;35.916;2022-12-07T16:22:39;99709.38;;;-4.24;50.23
76940;BME280;65885;55.848;35.916;2022-12-07T16:25:07;99700.97;;;-4.18;49.82
76940;BME280;65885;55.848;35.916;2022-12-07T16:27:39;99701.09;;;-4.12;49.78
76940;BME280;65885;55.848;35.916;2022-12-07T16:30:08;99704.72;;;-4.01;49.90
76940;BME280;65885;55.848;35.916;2022-12-07T16:32:35;99705.78;;;-3.93;49.87
76940;BME280;65885;55.848;35.916;2022-12-07T16:35:05;99698.31;;;-3.82;49.61
76940;BME280;65885;55.848;35.916;2022-12-07T16:37:33;99702.00;;;-3.69;49.53
76940;BME280;65885;55.848;35.916;2022-12-07T16:40:00;99704.72;;;-3.60;49.12
76940;BME280;65885;55.848;35.916;2022-12-07T16:42:31;99719.38;;;-3.54;49.19
76940;BME280;65885;55.848;35.916;2022-12-07T16:44:59;99707.44;;;-3.51;48.63
76940;BME280;65885;55.848;35.916;2022-12-07T16:47:26;99717.72;;;-3.51;49.00
76940;BME280;65885;55.848;35.916;2022-12-07T16:49:54;99696.28;;;-3.54;48.80
76940;BME280;65885;55.848;35.916;2022-12-07T16:52:22;99709.81;;;-3.61;48.45
76940;BME280;65885;55.848;35.916;2022-12-07T16:54:50;99712.31;;;-3.65;48.61
76940;BME280;65885;55.848;35.916;2022-12-07T16:57:17;99708.69;;;-3.76;48.32
76940;BME280;65885;55.848;35.916;2022-12-07T16:59:45;99694.84;;;-3.84;48.54
76940;BME280;65885;55.848;35.916;2022-12-07T17:02:13;99695.53;;;-3.93;48.66
76940;BME280;65885;55.848;35.916;2022-12-07T17:04:41;99702.25;;;-3.98;49.10
76940;BME280;65885;55.848;35.916;2022-12-07T17:07:08;99697.81;;;-4.06;49.14
76940;BME280;65885;55.848;35.916;2022-12-07T17:09:37;99695.88;;;-4.16;48.99
76940;BME280;65885;55.848;35.916;2022-12-07T17:12:07;99696.66;;;-4.21;49.28
76940;BME280;65885;55.848;35.916;2022-12-07T17:14:37;99698.19;;;-4.29;49.09
76940;BME280;65885;55.848;35.916;2022-12-07T17:17:21;99700.56;;;-4.36;49.48
76940;BME280;65885;55.848;35.916;2022-12-07T17:19:49;99687.69;;;-4.39;49.83
76940;BME280;65885;55.848;35.916;2022-12-07T17:22:16;99705.66;;;-4.38;49.72
76940;BME280;65885;55.848;35.916;2022-12-07T17:24:45;99696.41;;;-4.31;50.36
76940;BME280;65885;55.848;35.916;2022-12-07T17:27:13;99706.78;;;-4.25;50.51
76940;BME280;65885;55.848;35.916;2022-12-07T17:29:43;99695.06;;;-4.15;50.42
76940;BME280;65885;55.848;35.916;2022-12-07T17:32:12;99694.38;;;-4.07;50.23
76940;BME280;65885;55.848;35.916;2022-12-07T17:34:40;99680.06;;;-3.97;49.92
76940;BME280;65885;55.848;35.916;2022-12-07T17:37:08;99688.81;;;-3.86;49.97
76940;BME280;65885;55.848;35.916;2022-12-07T17:39:35;99690.66;;;-3.79;49.41
76940;BME280;65885;55.848;35.916;2022-12-07T17:42:04;99683.13;;;-3.71;49.20
76940;BME280;65885;55.848;35.916;2022-12-07T17:44:49;99678.94;;;-3.68;48.65
76940;BME280;65885;55.848;35.916;2022-12-07T17:47:16;99683.22;;;-3.67;49.00
76940;BME280;65885;55.848;35.916;2022-12-07T17:49:46;99682.41;;;-3.64;48.79
76940;BME280;65885;55.848;35.916;2022-12-07T17:52:14;99672.16;;;-3.66;48.38
76940;BME280;65885;55.848;35.916;2022-12-07T17:54:59;99685.81;;;-3.65;48.61
76940;BME280;65885;55.848;35.916;2022-12-07T17:57:27;99680.56;;;-3.71;48.20
76940;BME280;65885;55.848;35.916;2022-12-07T17:59:55;99683.94;;;-3.75;48.13
76940;BME280;65885;55.848;35.916;2022-12-07T18:02:25;99686.34;;;-3.83;48.35
76940;BME280;65885;55.848;35.916;2022-12-07T18:04:52;99683.63;;;-3.91;48.38
76940;BME280;65885;55.848;35.916;2022-12-07T18:07:20;99672.22;;;-4.05;48.79
76940;BME280;65885;55.848;35.916;2022-12-07T18:09:48;99683.19;;;-4.12;48.84
76940;BME280;65885;55.848;35.916;2022-12-07T18:12:15;99676.25;;;-4.16;49.14
76940;BME280;65885;55.848;35.916;2022-12-07T18:14:44;99670.25;;;-4.18;49.53
76940;BME280;65885;55.848;35.916;2022-12-07T18:17:13;99668.53;;;-4.18;49.32
76940;BME280;65885;55.848;35.916;2022-12-07T18:19:42;99675.47;;;-4.13;49.98
76940;BME280;65885;55.848;35.916;2022-12-07T18:22:10;99667.88;;;-4.09;49.94
76940;BME280;65885;55.848;35.916;2022-12-07T18:24:37;99668.94;;;-3.99;49.87
76940;BME280;65885;55.848;35.916;2022-12-07T18:27:05;99675.94;;;-3.91;50.20
76940;BME280;65885;55.848;35.916;2022-12-07T18:29:32;99670.09;;;-3.83;49.74
76940;BME280;65885;55.848;35.916;2022-12-07T18:32:02;99656.56;;;-3.78;49.29
76940;BME280;65885;55.848;35.916;2022-12-07T18:34:31;99666.91;;;-3.72;49.20
76940;BME280;65885;55.848;35.916;2022-12-07T18:36:58;99660.88;;;-3.74;49.45
76940;BME280;65885;55.848;35.916;2022-12-07T18:39:27;99652.31;;;-3.76;49.26
76940;BME280;65885;55.848;35.916;2022-12-07T18:41:54;99659.91;;;-3.80;49.19
76940;BME280;65885;55.848;35.916;2022-12-07T18:44:22;99647.03;;;-3.85;49.06
76940;BME280;65885;55.848;35.916;2022-12-07T18:46:49;99646.06;;;-3.90;49.37
76940;BME280;65885;55.848;35.916;2022-12-07T18:49:18;99634.78;;;-4.00;49.47
76940;BME280;65885;55.848;35.916;2022-12-07T18:51:46;99645.75;;;-4.05;49.51
76940;BME280;65885;55.848;35.916;2022-12-07T18:54:13;99638.78;;;-4.12;49.66
76940;BME280;65885;55.848;35.916;2022-12-07T18:56:40;99632.66;;;-4.19;49.79
76940;BME280;65885;55.848;35.916;2022-12-07T18:59:12;99631.63;;;-4.29;50.10
76940;BME280;65885;55.848;35.916;2022-12-07T19:01:57;99623.84;;;-4.33;50.19
76940;BME280;65885;55.848;35.916;2022-12-07T19:04:27;99622.81;;;-4.41;50.83
76940;BME280;65885;55.848;35.916;2022-12-07T19:06:55;99624.50;;;-4.42;51.03
76940;BME280;65885;55.848;35.916;2022-12-07T19:09:24;99621.09;;;-4.42;50.98
76940;BME280;65885;55.848;35.916;2022-12-07T19:11:52;99621.16;;;-4.39;51.18
76940;BME280;65885;55.848;35.916;2022-12-07T19:14:23;99621.38;;;-4.30;51.30
76940;BME280;65885;55.848;35.916;2022-12-07T19:16:52;99619.06;;;-4.16;51.46
76940;BME280;65885;55.848;35.916;2022-12-07T19:19:21;99608.22;;;-4.03;51.63
76940;BME280;65885;55.848;35.916;2022-12-07T19:21:51;99606.81;;;-3.89;51.56
76940;BME280;65885;55.848;35.916;2022-12-07T19:24:18;99613.91;;;-3.74;50.81
76940;BME280;65885;55.848;35.916;2022-12-07T19:26:46;99616.75;;;-3.59;50.85
76940;BME280;65885;55.848;35.916;2022-12-07T19:29:13;99604.16;;;-3.47;50.85
76940;BME280;65885;55.848;35.916;2022-12-07T19:31:41;99600.03;;;-3.39;49.60
76940;BME280;65885;55.848;35.916;2022-12-07T19:34:09;99602.75;;;-3.29;49.50
76940;BME280;65885;55.848;35.916;2022-12-07T19:36:38;99595.16;;;-3.23;49.08
76940;BME280;65885;55.848;35.916;2022-12-07T19:39:07;99596.91;;;-3.19;49.20
76940;BME280;65885;55.848;35.916;2022-12-07T19:41:35;99594.34;;;-3.19;49.23
76940;BME280;65885;55.848;35.916;2022-12-07T19:44:12;99587.38;;;-3.26;48.98
76940;BME280;65885;55.848;35.916;2022-12-07T19:46:42;99583.16;;;-3.24;48.78
76940;BME280;65885;55.848;35.916;2022-12-07T19:49:11;99584.53;;;-3.45;49.39
76940;BME280;65885;55.848;35.916;2022-12-07T19:51:41;99589.56;;;-3.49;48.94
76940;BME280;65885;55.848;35.916;2022-12-07T19:54:11;99586.03;;;-3.56;49.00
76940;BME280;65885;55.848;35.916;2022-12-07T19:56:39;99589.31;;;-3.63;49.70
76940;BME280;65885;55.848;35.916;2022-12-07T19:59:07;99581.50;;;-3.71;49.79
76940;BME280;65885;55.848;35.916;2022-12-07T20:01:35;99599.38;;;-3.75;49.64
76940;BME280;65885;55.848;35.916;2022-12-07T20:04:06;99590.72;;;-3.82;49.74
76940;BME280;65885;55.848;35.916;2022-12-07T20:06:34;99595.75;;;-3.86;49.96
76940;BME280;65885;55.848;35.916;2022-12-07T20:09:02;99586.22;;;-3.94;50.58
76940;BME280;65885;55.848;35.916;2022-12-07T20:11:31;99589.56;;;-3.98;50.66
76940;BME280;65885;55.848;35.916;2022-12-07T20:14:16;99598.00;;;-4.03;50.71
76940;BME280;65885;55.848;35.916;2022-12-07T20:16:43;99585.91;;;-4.09;51.07
76940;BME280;65885;55.848;35.916;2022-12-07T20:19:14;99599.72;;;-4.02;51.58
76940;BME280;65885;55.848;35.916;2022-12-07T20:21:42;99586.16;;;-3.97;51.06
76940;BME280;65885;55.848;35.916;2022-12-07T20:24:11;99586.34;;;-3.87;51.31
76940;BME280;65885;55.848;35.916;2022-12-07T20:26:41;99594.22;;;-3.77;51.15
76940;BME280;65885;55.848;35.916;2022-12-07T20:29:10;99585.88;;;-3.65;51.50
76940;BME280;65885;55.848;35.916;2022-12-07T20:31:39;99588.69;;;-3.51;51.31
76940;BME280;65885;55.848;35.916;2022-12-07T20:34:07;99594.03;;;-3.39;51.20
76940;BME280;65885;55.848;35.916;2022-12-07T20:36:34;99591.66;;;-3.27;51.18
76940;BME280;65885;55.848;35.916;2022-12-07T20:39:03;99596.97;;;-3.16;50.60
76940;BME280;65885;55.848;35.916;2022-12-07T20:41:30;99591.06;;;-3.11;50.56
76940;BME280;65885;55.848;35.916;2022-12-07T20:44:17;99591.03;;;-3.12;50.06
76940;BME280;65885;55.848;35.916;2022-12-07T20:46:45;99591.84;;;-3.16;49.88
76940;BME280;65885;55.848;35.916;2022-12-07T20:49:13;99586.63;;;-3.21;49.73
76940;BME280;65885;55.848;35.916;2022-12-07T20:51:41;99588.22;;;-3.27;49.76
76940;BME280;65885;55.848;35.916;2022-12-07T20:54:09;99587.22;;;-3.37;50.23
76940;BME280;65885;55.848;35.916;2022-12-07T20:56:37;99585.38;;;-3.47;50.05
76940;BME280;65885;55.848;35.916;2022-12-07T20:59:06;99583.53;;;-3.54;50.16
76940;BME280;65885;55.848;35.916;2022-12-07T21:01:36;99582.56;;;-3.61;50.58
76940;BME280;65885;55.848;35.916;2022-12-07T21:04:04;99589.31;;;-3.63;50.98
76940;BME280;65885;55.848;35.916;2022-12-07T21:06:32;99581.63;;;-3.65;51.19
76940;BME280;65885;55.848;35.916;2022-12-07T21:09:01;99567.94;;;-3.65;51.34
76940;BME280;65885;55.848;35.916;2022-12-07T21:11:30;99570.59;;;-3.60;51.45
76940;BME280;65885;55.848;35.916;2022-12-07T21:13:57;99576.59;;;-3.60;51.66
76940;BME280;65885;55.848;35.916;2022-12-07T21:16:26;99582.72;;;-3.50;51.28
76940;BME280;65885;55.848;35.916;2022-12-07T21:18:57;99576.84;;;-3.45;51.40
76940;BME280;65885;55.848;35.916;2022-12-07T21:21:27;99580.41;;;-3.35;51.47
76940;BME280;65885;55.848;35.916;2022-12-07T21:23:55;99577.19;;;-3.25;51.42
76940;BME280;65885;55.848;35.916;2022-12-07T21:26:25;99580.69;;;-3.18;51.35
76940;BME280;65885;55.848;35.916;2022-12-07T21:28:53;99574.88;;;-3.08;50.63
76940;BME280;65885;55.848;35.916;2022-12-07T21:31:20;99573.31;;;-2.98;51.06
76940;BME280;65885;55.848;35.916;2022-12-07T21:33:48;99576.84;;;-2.89;50.74
76940;BME280;65885;55.848;35.916;2022-12-07T21:36:18;99576.09;;;-2.82;50.71
76940;BME280;65885;55.848;35.916;2022-12-07T21:38:47;99577.91;;;-2.74;50.48
76940;BME280;65885;55.848;35.916;2022-12-07T21:41:15;99571.97;;;-2.72;49.78
76940;BME280;65885;55.848;35.916;2022-12-07T21:43:44;99572.78;;;-2.73;49.25
76940;BME280;65885;55.848;35.916;2022-12-07T21:46:12;99577.00;;;-2.80;49.78
76940;BME280;65885;55.848;35.916;2022-12-07T21:48:40;99571.72;;;-2.89;49.76
76940;BME280;65885;55.848;35.916;2022-12-07T21:51:09;99572.44;;;-2.99;49.57
76940;BME280;65885;55.848;35.916;2022-12-07T21:53:39;99575.66;;;-3.11;50.00
76940;BME280;65885;55.848;35.916;2022-12-07T21:56:13;99582.31;;;-3.25;49.92
76940;BME280;65885;55.848;35.916;2022-12-07T21:58:41;99580.44;;;-3.33;50.14
76940;BME280;65885;55.848;35.916;2022-12-07T22:01:14;99575.91;;;-3.48;50.86
76940;BME280;65885;55.848;35.916;2022-12-07T22:03:41;99568.97;;;-3.55;50.70
76940;BME280;65885;55.848;35.916;2022-12-07T22:06:11;99560.25;;;-3.65;51.36
76940;BME280;65885;55.848;35.916;2022-12-07T22:08:41;99573.81;;;-3.72;51.12
76940;BME280;65885;55.848;35.916;2022-12-07T22:11:09;99576.22;;;-3.80;51.32
76940;BME280;65885;55.848;35.916;2022-12-07T22:13:36;99565.84;;;-3.87;51.50
76940;BME280;65885;55.848;35.916;2022-12-07T22:16:30;99563.03;;;-4.01;52.08
76940;BME280;65885;55.848;35.916;2022-12-07T22:18:58;99568.97;;;-4.04;52.44
76940;BME280;65885;55.848;35.916;2022-12-07T22:21:26;99566.34;;;-4.07;52.28
76940;BME280;65885;55.848;35.916;2022-12-07T22:23:55;99569.75;;;-4.08;53.06
76940;BME280;65885;55.848;35.916;2022-12-07T22:26:22;99563.84;;;-4.02;52.99
76940;BME280;65885;55.848;35.916;2022-12-07T22:28:50;99562.31;;;-3.94;53.81
76940;BME280;65885;55.848;35.916;2022-12-07T22:31:19;99559.09;;;-3.84;53.29
76940;BME280;65885;55.848;35.916;2022-12-07T22:33:47;99557.59;;;-3.71;53.56
76940;BME280;65885;55.848;35.916;2022-12-07T22:36:15;99567.19;;;-3.59;52.97
76940;BME280;65885;55.848;35.916;2022-12-07T22:38:43;99561.41;;;-3.48;53.25
76940;BME280;65885;55.848;35.916;2022-12-07T22:41:16;99552.16;;;-3.40;52.45
76940;BME280;65885;55.848;35.916;2022-12-07T22:43:44;99561.75;;;-3.26;52.06
76940;BME280;65885;55.848;35.916;2022-12-07T22:46:12;99551.59;;;-3.20;51.95
76940;BME280;65885;55.848;35.916;2022-12-07T22:48:39;99549.09;;;-3.17;51.68
76940;BME280;65885;55.848;35.916;2022-12-07T22:51:19;99541.31;;;-3.23;51.67
76940;BME280;65885;55.848;35.916;2022-12-07T22:53:47;99544.00;;;-3.14;51.30
76940;BME280;65885;55.848;35.916;2022-12-07T22:56:16;99537.16;;;-3.15;51.46
76940;BME280;65885;55.848;35.916;2022-12-07T22:58:44;99533.78;;;-3.11;51.43
76940;BME280;65885;55.848;35.916;2022-12-07T23:01:13;99533.78;;;-3.11;51.12
76940;BME280;65885;55.848;35.916;2022-12-07T23:03:41;99532.97;;;-3.09;51.52
76940;BME280;65885;55.848;35.916;2022-12-07T23:06:11;99530.44;;;-3.07;51.28
76940;BME280;65885;55.848;35.916;2022-12-07T23:08:40;99527.88;;;-3.04;51.52
76940;BME280;65885;55.848;35.916;2022-12-07T23:11:08;99519.34;;;-3.03;51.09
76940;BME280;65885;55.848;35.916;2022-12-07T23:13:58;99523.59;;;-3.05;51.02
76940;BME280;65885;55.848;35.916;2022-12-07T23:16:24;99522.66;;;-3.10;50.74
76940;BME280;65885;55.848;35.916;2022-12-07T23:18:51;99512.34;;;-3.16;50.99
76940;BME280;65885;55.848;35.916;2022-12-07T23:21:19;99505.41;;;-3.23;50.84
76940;BME280;65885;55.848;35.916;2022-12-07T23:23:50;99503.56;;;-3.32;51.01
76940;BME280;65885;55.848;35.916;2022-12-07T23:26:17;99497.41;;;-3.42;51.46
76940;BME280;65885;55.848;35.916;2022-12-07T23:28:44;99497.28;;;-3.51;51.52
76940;BME280;65885;55.848;35.916;2022-12-07T23:31:15;99491.16;;;-3.60;51.34
76940;BME280;65885;55.848;35.916;2022-12-07T23:33:43;99503.03;;;-3.64;52.11
76940;BME280;65885;55.848;35.916;2022-12-07T23:36:12;99497.03;;;-3.66;52.13
76940;BME280;65885;55.848;35.916;2022-12-07T23:38:41;99510.72;;;-3.64;52.91
76940;BME280;65885;55.848;35.916;2022-12-07T23:41:11;99504.00;;;-3.59;52.83
76940;BME280;65885;55.848;35.916;2022-12-07T23:43:40;99499.00;;;-3.51;53.21
76940;BME280;65885;55.848;35.916;2022-12-07T23:46:10;99496.56;;;-3.42;53.32
76940;BME280;65885;55.848;35.916;2022-12-07T23:48:40;99498.38;;;-3.35;52.88
76940;BME280;65885;55.848;35.916;2022-12-07T23:51:08;99493.38;;;-3.26;52.69
76940;BME280;65885;55.848;35.916;2022-12-07T23:53:38;99490.06;;;-3.19;52.66
76940;BME280;65885;55.848;35.916;2022-12-07T23:56:07;99502.16;;;-3.10;52.52
76940;BME280;65885;55.848;35.916;2022-12-07T23:58:37;99486.84;;;-3.04;52.51
